Time;durP1;ratioP1;P1;durP2;ratioP2;P2;SDS_P1;SDS_P2;PMS_P1;PMS_P2;Temp;Humidity;BMP_temperature;BMP_pressure;BME280_temperature;BME280_humidity;BME280_pressure;Samples;Min_cycle;Max_cycle;Signal;HPM_P1;HPM_P2
2021/11/19 00:01:20;;;;;;;25.63;12.70;;;;;;;9.85;73.78;100739.56;5004202;28;20038;-68
2021/11/19 00:03:46;;;;;;;26.73;13.55;;;;;;;9.79;73.14;100745.38;5001858;28;20031;-69
2021/11/19 00:06:12;;;;;;;26.60;14.25;;;;;;;9.76;73.77;100743.00;4988929;28;20041;-69
2021/11/19 00:08:39;;;;;;;25.73;12.85;;;;;;;9.67;73.28;100745.59;4992201;28;20040;-68
2021/11/19 00:11:09;;;;;;;26.98;13.98;;;;;;;9.71;73.19;100750.50;4995776;28;20082;-68
2021/11/19 00:13:35;;;;;;;28.23;12.85;;;;;;;9.63;72.70;100746.84;4989479;28;20231;-67
2021/11/19 00:16:00;;;;;;;25.10;12.10;;;;;;;9.44;73.23;100740.47;4987668;28;20048;-68
2021/11/19 00:18:26;;;;;;;23.50;12.55;;;;;;;9.52;73.46;100758.34;4997363;28;20053;-68
2021/11/19 00:20:52;;;;;;;21.98;11.55;;;;;;;9.52;72.48;100748.59;4991885;28;20347;-69
2021/11/19 00:23:18;;;;;;;21.63;11.35;;;;;;;9.44;73.22;100753.69;4994639;28;20042;-69
2021/11/19 00:25:44;;;;;;;21.23;10.90;;;;;;;9.50;72.37;100750.53;5007303;28;20038;-67
2021/11/19 00:28:10;;;;;;;21.48;11.35;;;;;;;9.52;71.58;100747.75;5005654;28;20209;-68
2021/11/19 00:30:38;;;;;;;21.20;10.80;;;;;;;9.66;71.53;100742.13;4988612;28;20065;-68
2021/11/19 00:33:04;;;;;;;18.42;10.63;;;;;;;9.50;71.54;100739.97;4987850;28;20030;-68
2021/11/19 00:35:31;;;;;;;17.20;10.48;;;;;;;9.52;71.41;100750.41;4998254;28;20042;-69
2021/11/19 00:37:58;;;;;;;22.92;9.82;;;;;;;9.44;71.69;100755.50;5003836;28;20296;-68
2021/11/19 00:40:31;;;;;;;21.10;11.00;;;;;;;9.32;71.83;100757.34;5005988;28;20088;-67
2021/11/19 00:42:56;;;;;;;24.17;12.27;;;;;;;9.37;72.02;100757.00;5006693;28;20038;-67
2021/11/19 00:45:24;;;;;;;21.88;12.43;;;;;;;9.54;71.63;100745.81;5008216;28;20046;-67
2021/11/19 00:47:54;;;;;;;22.38;12.02;;;;;;;9.57;71.35;100753.50;5003649;28;20320;-67
2021/11/19 00:50:23;;;;;;;18.90;10.27;;;;;;;9.46;71.68;100758.84;4994753;28;20046;-67
2021/11/19 00:52:49;;;;;;;42.72;19.15;;;;;;;9.44;71.99;100758.16;4989984;28;20046;-69
2021/11/19 00:55:14;;;;;;;114.32;44.55;;;;;;;9.37;71.99;100747.25;4992527;28;20056;-68
2021/11/19 00:57:42;;;;;;;103.50;44.40;;;;;;;9.36;72.55;100761.41;4984774;28;20058;-68
2021/11/19 01:00:11;;;;;;;63.42;30.10;;;;;;;9.25;72.39;100745.63;4984565;28;20674;-67
2021/11/19 01:02:37;;;;;;;72.57;31.15;;;;;;;9.33;72.39;100758.19;4985172;28;20194;-68
2021/11/19 01:05:03;;;;;;;67.88;30.80;;;;;;;9.35;71.96;100750.97;4985042;28;20027;-68
2021/11/19 01:07:28;;;;;;;47.63;22.38;;;;;;;9.46;71.88;100750.91;5002681;28;20030;-68
2021/11/19 01:09:58;;;;;;;45.60;22.00;;;;;;;9.47;71.48;100755.25;5004287;28;20050;-69
2021/11/19 01:12:27;;;;;;;42.47;20.67;;;;;;;9.58;70.85;100761.28;4988499;28;20233;-68
2021/11/19 01:15:05;;;;;;;59.65;25.15;;;;;;;9.70;70.39;100755.91;4989463;28;20129;-68
2021/11/19 01:17:38;;;;;;;62.53;27.38;;;;;;;9.62;70.17;100746.00;4998313;28;20022;-67
2021/11/19 01:20:30;;;;;;;34.33;16.33;;;;;;;9.47;70.80;100752.59;5003005;28;20046;-67
2021/11/19 01:22:58;;;;;;;47.55;21.88;;;;;;;9.53;70.62;100741.50;5001731;28;20231;-68
2021/11/19 01:25:28;;;;;;;33.63;16.67;;;;;;;9.37;70.83;100743.78;4987361;28;20271;-68
2021/11/19 01:27:54;;;;;;;42.58;20.45;;;;;;;9.38;71.45;100758.66;4991167;28;20062;-69
2021/11/19 01:30:25;;;;;;;33.95;17.70;;;;;;;9.43;71.27;100756.47;4990895;28;20046;-69
2021/11/19 01:32:50;;;;;;;30.45;15.18;;;;;;;9.64;70.54;100751.16;4984503;28;20038;-67
2021/11/19 01:35:16;;;;;;;35.15;17.40;;;;;;;9.53;70.76;100752.06;4984866;28;20042;-67
2021/11/19 01:37:42;;;;;;;33.00;15.77;;;;;;;9.60;69.97;100753.22;4987746;28;20057;-68
2021/11/19 01:40:11;;;;;;;26.85;12.80;;;;;;;9.63;70.57;100742.38;4984008;28;20046;-67
2021/11/19 01:42:42;;;;;;;27.77;13.02;;;;;;;9.63;69.93;100747.69;4985254;28;20252;-68
2021/11/19 01:45:12;;;;;;;24.58;12.75;;;;;;;9.55;70.18;100748.34;4993062;28;20049;-67
2021/11/19 01:47:43;;;;;;;23.88;12.05;;;;;;;9.59;70.11;100744.47;5003796;28;20038;-68
2021/11/19 01:50:19;;;;;;;21.95;11.07;;;;;;;9.68;69.92;100747.28;5001080;28;20042;-69
2021/11/19 01:52:51;;;;;;;18.83;10.98;;;;;;;9.65;69.54;100750.19;4983973;28;20039;-69
2021/11/19 01:55:29;;;;;;;17.00;9.57;;;;;;;9.56;69.57;100751.81;4984798;28;20309;-68
2021/11/19 01:58:13;;;;;;;19.88;10.35;;;;;;;9.60;69.22;100755.88;4993595;28;20049;-67
2021/11/19 02:00:41;;;;;;;18.65;9.30;;;;;;;9.59;69.06;100741.81;4985049;28;20035;-68
2021/11/19 02:03:10;;;;;;;18.48;9.98;;;;;;;9.66;69.05;100734.19;4983769;28;20030;-68
2021/11/19 02:05:41;;;;;;;18.00;9.73;;;;;;;9.56;68.75;100746.53;4990635;28;20319;-68
2021/11/19 02:08:21;;;;;;;18.88;10.18;;;;;;;9.54;69.33;100746.66;4989423;28;20060;-67
2021/11/19 02:10:57;;;;;;;22.80;10.48;;;;;;;9.52;69.47;100740.66;4989766;28;20041;-68
2021/11/19 02:13:26;;;;;;;19.25;9.98;;;;;;;9.51;69.13;100743.44;4989171;28;20225;-69
2021/11/19 02:16:00;;;;;;;18.20;9.82;;;;;;;9.55;69.01;100747.50;4984937;28;20050;-69
2021/11/19 02:18:55;;;;;;;15.15;7.72;;;;;;;9.50;69.22;100747.88;4982882;28;20309;-68
2021/11/19 02:21:25;;;;;;;18.85;9.90;;;;;;;9.48;69.19;100757.75;4995459;28;20045;-68
2021/11/19 02:24:00;;;;;;;20.92;10.88;;;;;;;9.45;69.63;100758.03;4984241;28;20376;-68
2021/11/19 02:26:34;;;;;;;22.67;10.80;;;;;;;9.42;69.46;100747.69;4983145;28;20039;-67
2021/11/19 02:29:00;;;;;;;20.70;10.77;;;;;;;9.43;69.74;100740.59;4992342;28;20101;-67
2021/11/19 02:31:30;;;;;;;27.83;11.40;;;;;;;9.47;69.34;100742.03;5002255;28;20041;-67
2021/11/19 02:33:59;;;;;;;21.83;11.18;;;;;;;9.41;69.49;100747.84;4999927;28;20118;-69
2021/11/19 02:36:35;;;;;;;20.15;11.18;;;;;;;9.41;69.86;100739.91;4991597;28;20038;-68
2021/11/19 02:39:07;;;;;;;17.70;9.80;;;;;;;9.36;69.96;100739.44;4986440;28;20244;-68
2021/11/19 02:41:36;;;;;;;24.42;9.77;;;;;;;9.40;69.70;100743.50;4986855;28;20038;-68
2021/11/19 02:44:06;;;;;;;18.52;9.23;;;;;;;9.36;69.87;100748.19;4982986;28;20034;-67
2021/11/19 02:46:46;;;;;;;20.05;10.55;;;;;;;9.34;70.51;100738.72;4985452;28;20030;-67
2021/11/19 02:49:12;;;;;;;20.55;9.68;;;;;;;9.34;69.95;100738.72;4992327;28;20034;-68
2021/11/19 02:51:38;;;;;;;17.60;9.55;;;;;;;9.34;70.35;100734.25;4983557;28;20089;-69
2021/11/19 02:54:07;;;;;;;18.25;9.98;;;;;;;9.32;70.76;100733.56;4983131;28;20347;-69
2021/11/19 02:56:33;;;;;;;20.58;9.77;;;;;;;9.16;70.48;100717.31;4992937;28;20046;-67
2021/11/19 02:59:00;;;;;;;17.63;8.73;;;;;;;9.19;71.07;100725.84;5001891;28;20037;-67
2021/11/19 03:01:39;;;;;;;19.50;8.75;;;;;;;9.34;70.65;100736.06;4999043;28;20301;-68
2021/11/19 03:04:04;;;;;;;19.50;10.10;;;;;;;9.37;70.82;100738.50;5002744;28;20148;-68
2021/11/19 03:06:36;;;;;;;16.25;9.32;;;;;;;9.41;70.75;100735.44;4997200;28;20038;-67
2021/11/19 03:09:03;;;;;;;17.83;9.45;;;;;;;9.37;70.65;100741.13;4987083;28;20660;-67
2021/11/19 03:11:29;;;;;;;15.07;9.05;;;;;;;9.29;70.79;100736.47;4982334;28;20039;-68
2021/11/19 03:13:55;;;;;;;14.88;8.43;;;;;;;9.36;70.94;100740.25;4982453;28;20034;-68
2021/11/19 03:16:21;;;;;;;15.25;8.55;;;;;;;9.38;70.58;100741.00;4988215;28;20328;-69
2021/11/19 03:18:46;;;;;;;15.63;8.73;;;;;;;9.36;70.62;100739.44;4992371;28;20038;-68
2021/11/19 03:21:16;;;;;;;18.25;9.13;;;;;;;9.43;71.56;100736.16;4982247;28;20039;-67
2021/11/19 03:23:42;;;;;;;18.88;8.55;;;;;;;9.50;70.63;100729.38;4981371;28;20034;-68
2021/11/19 03:26:10;;;;;;;14.23;8.55;;;;;;;9.40;71.26;100733.78;4998892;28;20049;-68
2021/11/19 03:28:36;;;;;;;14.63;7.63;;;;;;;9.52;70.83;100730.09;5001332;28;20331;-67
2021/11/19 03:31:06;;;;;;;15.95;8.30;;;;;;;9.38;71.35;100732.22;4995606;28;20285;-68
2021/11/19 03:33:36;;;;;;;14.98;7.95;;;;;;;9.48;71.12;100731.31;4993957;28;20023;-69
2021/11/19 03:36:02;;;;;;;14.52;8.00;;;;;;;9.40;71.33;100730.28;4981662;28;20070;-69
2021/11/19 03:38:29;;;;;;;16.00;8.05;;;;;;;9.43;71.45;100728.22;4983260;28;20362;-67
2021/11/19 03:40:58;;;;;;;15.82;8.30;;;;;;;9.40;71.37;100739.06;4997225;28;20045;-68
2021/11/19 03:43:31;;;;;;;16.42;7.95;;;;;;;9.43;71.30;100740.59;4995944;28;20022;-67
2021/11/19 03:46:04;;;;;;;13.27;7.77;;;;;;;9.32;71.95;100738.84;4989508;28;20224;-67
2021/11/19 03:48:30;;;;;;;12.67;7.20;;;;;;;9.26;72.27;100729.63;5001282;28;20050;-67
2021/11/19 03:51:01;;;;;;;15.50;8.27;;;;;;;9.24;72.33;100736.84;4998069;28;20049;-67
2021/11/19 03:53:27;;;;;;;14.63;7.47;;;;;;;9.42;71.47;100728.38;4984113;28;20034;-68
2021/11/19 03:55:55;;;;;;;11.90;6.97;;;;;;;9.26;72.17;100729.63;4982214;28;20043;-68
2021/11/19 03:58:27;;;;;;;12.23;7.22;;;;;;;9.46;71.36;100737.72;4983103;28;20037;-68
2021/11/19 04:00:59;;;;;;;12.80;7.00;;;;;;;9.41;72.04;100737.25;4984594;28;20039;-67
2021/11/19 04:03:25;;;;;;;11.68;6.68;;;;;;;9.41;71.78;100740.75;4981688;28;20035;-68
2021/11/19 04:05:52;;;;;;;12.85;6.70;;;;;;;9.39;71.90;100741.84;4984246;28;20220;-67
2021/11/19 04:08:18;;;;;;;10.88;6.75;;;;;;;9.32;72.34;100735.38;4983775;28;20046;-67
2021/11/19 04:10:46;;;;;;;13.25;8.05;;;;;;;9.44;71.99;100739.63;4981895;28;20054;-68
2021/11/19 04:13:12;;;;;;;12.05;7.18;;;;;;;9.45;71.92;100742.16;4983940;28;20031;-69
2021/11/19 04:15:43;;;;;;;12.00;6.90;;;;;;;9.45;72.11;100742.16;4982201;28;20045;-69
2021/11/19 04:18:11;;;;;;;13.30;7.13;;;;;;;9.49;72.03;100748.84;4982763;28;20031;-68
2021/11/19 04:20:38;;;;;;;13.65;7.13;;;;;;;9.52;71.84;100748.59;5000751;28;20101;-68
2021/11/19 04:23:04;;;;;;;10.82;6.65;;;;;;;9.44;72.01;100729.91;5001256;28;20069;-67
2021/11/19 04:25:31;;;;;;;11.45;6.68;;;;;;;9.48;72.08;100743.69;4985472;28;20082;-68
2021/11/19 04:27:56;;;;;;;12.60;7.35;;;;;;;9.54;71.82;100733.44;4990537;28;20216;-68
2021/11/19 04:30:26;;;;;;;10.95;6.50;;;;;;;9.60;71.38;100743.50;4985928;28;20090;-67
2021/11/19 04:32:52;;;;;;;13.32;7.80;;;;;;;9.70;71.03;100735.59;4985682;28;20026;-69
2021/11/19 04:35:18;;;;;;;12.80;7.40;;;;;;;9.66;71.02;100731.53;4987150;28;20042;-69
2021/11/19 04:37:44;;;;;;;15.48;8.77;;;;;;;9.73;70.86;100739.78;4986200;28;20041;-68
2021/11/19 04:40:12;;;;;;;16.63;8.55;;;;;;;9.66;71.05;100738.63;4999666;28;20034;-68
2021/11/19 04:42:39;;;;;;;15.00;8.15;;;;;;;9.67;70.57;100738.50;5004317;28;20030;-68
2021/11/19 04:45:07;;;;;;;14.77;9.30;;;;;;;9.68;70.61;100736.69;4999163;28;20049;-68
2021/11/19 04:47:33;;;;;;;15.57;9.35;;;;;;;9.82;69.95;100739.00;4985077;28;20026;-68
2021/11/19 04:49:59;;;;;;;17.52;8.98;;;;;;;9.74;70.35;100733.53;4985510;28;20110;-67
2021/11/19 04:52:25;;;;;;;14.80;8.68;;;;;;;9.62;70.60;100738.06;4985032;28;20321;-67
2021/11/19 04:54:51;;;;;;;17.73;8.32;;;;;;;9.63;70.39;100729.16;4984620;28;20038;-69
2021/11/19 04:57:17;;;;;;;15.85;8.95;;;;;;;9.51;70.97;100728.41;4988254;28;20089;-69
2021/11/19 04:59:42;;;;;;;15.95;9.95;;;;;;;9.67;71.11;100735.03;4984598;28;20089;-67
2021/11/19 05:02:12;;;;;;;17.33;10.43;;;;;;;9.57;71.11;100727.88;4986809;28;20057;-68
2021/11/19 05:04:38;;;;;;;17.88;10.93;;;;;;;9.57;71.23;100735.81;4985601;28;20030;-68
2021/11/19 05:07:04;;;;;;;17.55;10.60;;;;;;;9.56;71.17;100733.31;4984534;28;20194;-69
2021/11/19 05:09:30;;;;;;;27.40;12.35;;;;;;;9.71;70.94;100741.72;4986451;28;20039;-67
2021/11/19 05:12:22;;;;;;;24.98;11.75;;;;;;;9.78;70.20;100743.72;4990330;28;20058;-67
2021/11/19 05:14:49;;;;;;;21.23;11.30;;;;;;;9.67;70.52;100737.69;4983923;28;20068;-67
2021/11/19 05:17:17;;;;;;;25.48;12.40;;;;;;;9.51;71.56;100744.28;4996924;28;20053;-68
2021/11/19 05:19:43;;;;;;;25.35;12.43;;;;;;;9.58;71.05;100748.06;5003980;28;20102;-68
2021/11/19 05:22:10;;;;;;;26.70;13.45;;;;;;;9.54;71.57;100753.75;4994513;28;20035;-69
2021/11/19 05:24:35;;;;;;;18.85;10.75;;;;;;;9.56;71.42;100754.47;4985687;28;20097;-69
2021/11/19 05:27:01;;;;;;;17.92;10.93;;;;;;;9.60;71.14;100751.41;4986316;28;20069;-67
2021/11/19 05:29:27;;;;;;;26.48;12.90;;;;;;;9.52;71.44;100751.25;4987337;28;20030;-68
2021/11/19 05:31:53;;;;;;;20.92;12.65;;;;;;;9.48;71.28;100757.75;5003739;28;20058;-68
2021/11/19 05:34:18;;;;;;;18.92;11.88;;;;;;;9.52;71.27;100745.94;5003546;28;20552;-68
2021/11/19 05:36:45;;;;;;;18.08;10.65;;;;;;;9.60;71.06;100758.53;5000990;28;20037;-68
2021/11/19 05:39:11;;;;;;;19.25;10.57;;;;;;;9.61;70.94;100762.84;5003488;28;20374;-67
2021/11/19 05:41:37;;;;;;;23.25;11.95;;;;;;;9.72;70.96;100772.50;5002165;28;20100;-69
2021/11/19 05:44:04;;;;;;;21.00;11.75;;;;;;;9.73;70.54;100771.53;4999225;28;20026;-69
2021/11/19 05:46:36;;;;;;;21.83;10.68;;;;;;;9.64;70.90;100770.50;5003665;28;20038;-68
2021/11/19 05:49:02;;;;;;;17.13;9.63;;;;;;;9.49;71.15;100769.16;4997621;28;20034;-67
2021/11/19 05:51:28;;;;;;;22.35;11.35;;;;;;;9.50;71.81;100768.19;4997496;28;20038;-68
2021/11/19 05:53:54;;;;;;;22.38;13.80;;;;;;;9.31;72.00;100754.84;5002625;28;20220;-68
2021/11/19 05:56:20;;;;;;;24.85;15.00;;;;;;;9.47;71.81;100776.41;5001709;28;20049;-67
2021/11/19 05:58:46;;;;;;;17.95;11.43;;;;;;;9.62;71.39;100780.38;4988905;28;20038;-67
2021/11/19 06:01:16;;;;;;;14.95;9.52;;;;;;;9.37;71.86;100781.63;4989565;28;20408;-68
2021/11/19 06:03:43;;;;;;;17.10;10.45;;;;;;;9.49;72.14;100782.38;4988123;28;20025;-69
2021/11/19 06:06:09;;;;;;;24.10;12.38;;;;;;;9.50;71.39;100776.13;4983841;28;20078;-69
2021/11/19 06:08:40;;;;;;;18.55;10.80;;;;;;;9.64;71.27;100783.72;4983565;28;20248;-67
2021/11/19 06:11:16;;;;;;;17.80;10.63;;;;;;;9.70;70.60;100787.66;4984814;28;20217;-68
2021/11/19 06:14:09;;;;;;;25.52;13.13;;;;;;;9.65;71.11;100790.69;4985643;28;20027;-67
2021/11/19 06:16:42;;;;;;;25.83;15.52;;;;;;;9.57;71.25;100788.69;5000268;28;20283;-67
2021/11/19 06:19:23;;;;;;;24.90;12.75;;;;;;;9.64;70.95;100785.53;4990763;28;20039;-67
2021/11/19 06:21:53;;;;;;;25.70;14.73;;;;;;;9.51;71.35;100780.44;4983619;28;20030;-67
2021/11/19 06:24:26;;;;;;;24.95;12.60;;;;;;;9.34;70.28;100778.34;4985050;28;20045;-69
2021/11/19 06:26:52;;;;;;;25.10;17.75;;;;;;;9.20;70.63;100772.44;4997329;28;20054;-68
2021/11/19 06:29:18;;;;;;;33.95;15.02;;;;;;;9.52;69.49;100779.47;4986529;28;20343;-67
2021/11/19 06:31:47;;;;;;;30.15;15.30;;;;;;;9.28;69.61;100779.72;4982990;28;20043;-67
2021/11/19 06:34:12;;;;;;;21.77;13.00;;;;;;;9.38;69.41;100777.16;4983635;28;20054;-67
2021/11/19 06:36:41;;;;;;;21.88;13.77;;;;;;;9.42;69.59;100775.94;4986352;28;20092;-68
2021/11/19 06:39:07;;;;;;;30.17;14.75;;;;;;;9.47;68.95;100784.31;4985443;28;20034;-68
2021/11/19 06:41:33;;;;;;;21.40;12.63;;;;;;;9.52;69.39;100776.84;4988203;28;20139;-69
2021/11/19 06:43:59;;;;;;;23.75;14.52;;;;;;;9.47;68.81;100781.69;4991395;28;20046;-69
2021/11/19 06:46:24;;;;;;;21.92;12.35;;;;;;;9.53;68.46;100783.81;4989805;28;20057;-67
2021/11/19 06:48:50;;;;;;;21.27;13.10;;;;;;;9.54;68.38;100777.53;4992666;28;20081;-67
2021/11/19 06:51:18;;;;;;;22.08;13.15;;;;;;;9.65;67.87;100779.28;4989467;28;20053;-68
2021/11/19 06:53:44;;;;;;;26.00;14.13;;;;;;;9.64;67.38;100778.44;4987901;28;20089;-69
2021/11/19 06:56:10;;;;;;;22.05;12.43;;;;;;;9.59;67.04;100773.53;4988855;28;20312;-69
2021/11/19 06:58:36;;;;;;;24.00;14.20;;;;;;;9.46;66.86;100780.00;4990568;28;20030;-68
2021/11/19 07:01:02;;;;;;;26.35;12.85;;;;;;;9.36;67.31;100774.63;4992155;28;20030;-67
2021/11/19 07:03:29;;;;;;;23.98;13.60;;;;;;;9.43;67.19;100777.63;4994598;28;20026;-67
2021/11/19 07:05:55;;;;;;;21.23;13.05;;;;;;;9.60;67.09;100775.22;4985684;28;20042;-68
2021/11/19 07:08:21;;;;;;;21.38;12.30;;;;;;;9.55;66.10;100779.22;4983023;28;20046;-67
2021/11/19 07:10:49;;;;;;;27.60;13.60;;;;;;;9.72;65.94;100783.91;4982327;28;20039;-68
2021/11/19 07:13:15;;;;;;;19.70;11.85;;;;;;;9.76;65.91;100779.19;4983752;28;20038;-69
2021/11/19 07:15:41;;;;;;;22.65;13.13;;;;;;;9.58;65.87;100771.88;4983222;28;20260;-69
2021/11/19 07:18:08;;;;;;;24.73;13.02;;;;;;;9.68;65.69;100777.22;4984099;28;20035;-67
2021/11/19 07:20:34;;;;;;;24.08;12.20;;;;;;;9.74;65.67;100784.63;4983443;28;20046;-68
2021/11/19 07:23:01;;;;;;;24.48;12.60;;;;;;;9.74;64.69;100775.84;4983040;28;20093;-67
2021/11/19 07:25:28;;;;;;;28.95;14.60;;;;;;;9.83;65.37;100786.47;4983096;28;20101;-68
2021/11/19 07:27:57;;;;;;;25.92;15.02;;;;;;;9.67;65.60;100783.47;4983392;28;20058;-67
2021/11/19 07:30:32;;;;;;;27.45;12.93;;;;;;;9.76;65.50;100785.31;4983343;28;20301;-69
2021/11/19 07:32:58;;;;;;;26.70;15.00;;;;;;;9.70;65.91;100769.97;4981750;28;20034;-69
2021/11/19 07:35:23;;;;;;;25.15;12.90;;;;;;;9.78;65.54;100788.69;4983295;28;20072;-68
2021/11/19 07:37:49;;;;;;;26.23;12.88;;;;;;;9.78;65.22;100786.03;4988390;28;20106;-67
2021/11/19 07:40:19;;;;;;;24.08;12.60;;;;;;;9.81;65.63;100787.56;4991737;28;20043;-67
2021/11/19 07:42:45;;;;;;;33.20;16.75;;;;;;;9.91;64.98;100784.00;4983396;28;20280;-68
2021/11/19 07:45:11;;;;;;;35.63;19.05;;;;;;;9.81;65.42;100779.63;4990888;28;20047;-69
2021/11/19 07:47:38;;;;;;;29.75;16.63;;;;;;;9.80;65.58;100778.81;4989818;28;20205;-68
2021/11/19 07:50:06;;;;;;;25.05;14.60;;;;;;;9.84;64.85;100767.00;4990854;28;20119;-67
2021/11/19 07:52:31;;;;;;;23.80;14.57;;;;;;;9.80;65.23;100775.31;4985321;28;20053;-67
2021/11/19 07:54:57;;;;;;;26.40;14.48;;;;;;;9.98;65.08;100771.09;4988237;28;20051;-68
2021/11/19 07:57:22;;;;;;;32.47;15.40;;;;;;;10.09;64.92;100776.28;4985573;28;20037;-67
2021/11/19 07:59:47;;;;;;;30.25;15.88;;;;;;;9.88;64.64;100775.50;4982864;28;20051;-67
2021/11/19 08:02:13;;;;;;;23.05;14.27;;;;;;;9.94;64.47;100772.31;4985517;28;20057;-68
2021/11/19 08:04:39;;;;;;;27.33;14.63;;;;;;;9.87;64.90;100787.88;4986764;28;20106;-68
2021/11/19 08:07:06;;;;;;;29.90;14.23;;;;;;;9.98;64.38;100780.81;4987077;28;20038;-69
2021/11/19 08:09:32;;;;;;;34.92;15.45;;;;;;;10.07;64.05;100788.81;4986441;28;20037;-68
2021/11/19 08:11:57;;;;;;;29.63;16.35;;;;;;;10.17;63.63;100788.84;4986827;28;20229;-67
2021/11/19 08:14:23;;;;;;;29.80;15.25;;;;;;;10.09;63.37;100784.22;4986626;28;20050;-68
2021/11/19 08:16:55;;;;;;;32.58;14.60;;;;;;;10.24;63.16;100784.72;4986362;28;20205;-67
2021/11/19 08:19:28;;;;;;;30.83;14.60;;;;;;;10.13;63.25;100780.34;4986384;28;20329;-67
2021/11/19 08:21:57;;;;;;;25.60;14.23;;;;;;;10.23;63.37;100785.69;4986946;28;20038;-68
2021/11/19 08:24:22;;;;;;;27.48;15.00;;;;;;;10.24;63.38;100777.63;4986055;28;20042;-68
2021/11/19 08:26:54;;;;;;;24.45;13.02;;;;;;;9.98;63.21;100781.66;4987072;28;20047;-68
2021/11/19 08:29:25;;;;;;;26.73;13.95;;;;;;;9.99;64.10;100778.06;4986559;28;20332;-69
2021/11/19 08:31:51;;;;;;;27.40;14.93;;;;;;;10.14;63.63;100789.09;4986021;28;20049;-68
2021/11/19 08:34:17;;;;;;;31.33;14.68;;;;;;;10.27;63.14;100787.09;4986268;28;20341;-67
2021/11/19 08:36:44;;;;;;;25.33;14.85;;;;;;;10.14;62.95;100792.59;4986616;28;20039;-68
2021/11/19 08:39:14;;;;;;;26.33;13.63;;;;;;;10.08;62.29;100787.00;4985721;28;20050;-68
2021/11/19 08:41:39;;;;;;;27.90;15.07;;;;;;;10.10;63.51;100777.13;4986656;28;20035;-68
2021/11/19 08:44:06;;;;;;;24.08;13.13;;;;;;;10.21;62.78;100788.47;4986116;28;20077;-68
2021/11/19 08:46:38;;;;;;;23.25;12.90;;;;;;;10.11;62.20;100770.84;4986290;28;20118;-67
2021/11/19 08:49:07;;;;;;;26.92;13.00;;;;;;;10.13;62.96;100784.78;4985868;28;20400;-73
2021/11/19 08:51:33;;;;;;;47.25;15.75;;;;;;;10.21;62.10;100767.28;4986497;28;20034;-69
2021/11/19 08:54:02;;;;;;;30.45;12.48;;;;;;;10.24;61.80;100776.78;4985894;28;20260;-69
2021/11/19 08:56:30;;;;;;;29.13;14.48;;;;;;;10.17;62.01;100771.16;4997184;28;20030;-67
2021/11/19 08:58:56;;;;;;;22.88;13.23;;;;;;;10.47;61.78;100774.78;5005400;28;20354;-67
2021/11/19 09:01:22;;;;;;;25.88;12.50;;;;;;;10.50;61.45;100767.41;5005284;28;20034;-67
2021/11/19 09:03:49;;;;;;;26.83;12.13;;;;;;;10.58;60.84;100768.53;5005602;28;20030;-69
2021/11/19 09:06:16;;;;;;;22.23;11.38;;;;;;;10.61;60.43;100762.94;5005599;28;20513;-69
2021/11/19 09:08:44;;;;;;;19.27;10.57;;;;;;;10.61;59.19;100762.94;5004777;28;20034;-67
2021/11/19 09:11:14;;;;;;;26.08;11.60;;;;;;;10.75;60.05;100760.75;5005363;28;20331;-67
2021/11/19 09:13:40;;;;;;;38.95;10.48;;;;;;;10.87;58.18;100742.88;5004487;28;20268;-70
2021/11/19 09:16:09;;;;;;;17.27;10.30;;;;;;;11.00;57.48;100750.56;5004792;28;20050;-71
2021/11/19 09:19:05;;;;;;;20.13;9.95;;;;;;;10.97;58.05;100738.44;5000088;28;20097;-67
2021/11/19 09:21:46;;;;;;;23.42;10.80;;;;;;;11.07;56.79;100736.59;4985530;28;20038;-67
2021/11/19 09:24:18;;;;;;;24.33;9.85;;;;;;;11.06;57.46;100724.34;4985018;28;20224;-68
2021/11/19 09:26:53;;;;;;;22.35;10.10;;;;;;;11.25;56.82;100725.28;4985905;28;20228;-70
2021/11/19 09:29:34;;;;;;;15.43;8.68;;;;;;;11.27;56.13;100725.97;4985439;28;20355;-69
2021/11/19 09:32:00;;;;;;;38.75;10.48;;;;;;;11.32;56.27;100721.06;4985137;28;20050;-71
2021/11/19 09:34:28;;;;;;;21.48;8.30;;;;;;;11.35;56.54;100712.84;4985367;28;20034;-70
2021/11/19 09:36:54;;;;;;;27.90;9.07;;;;;;;11.15;56.27;100704.94;4985141;28;20113;-69
2021/11/19 09:39:26;;;;;;;30.80;8.40;;;;;;;11.30;57.20;100712.44;4984803;28;20382;-69
2021/11/19 09:42:03;;;;;;;22.38;8.38;;;;;;;11.27;55.72;100718.00;4987490;28;20435;-69
2021/11/19 09:44:52;;;;;;;19.75;9.15;;;;;;;11.35;55.55;100704.88;5004607;28;20058;-70
2021/11/19 09:47:51;;;;;;;14.55;8.68;;;;;;;11.43;56.06;100697.88;5004382;28;20260;-71
2021/11/19 09:51:06;;;;;;;20.55;8.68;;;;;;;11.41;55.31;100686.56;5004517;28;20108;-70
2021/11/19 09:53:53;;;;;;;23.27;9.63;;;;;;;11.33;54.89;100677.66;4985413;28;20030;-70
2021/11/19 09:56:44;;;;;;;16.02;8.95;;;;;;;11.20;55.13;100668.22;4996134;28;20038;-69
2021/11/19 09:59:24;;;;;;;17.58;8.95;;;;;;;11.24;54.92;100676.72;5004647;28;20081;-69
2021/11/19 10:02:13;;;;;;;21.83;9.00;;;;;;;11.34;54.64;100666.09;5004312;28;20035;-69
2021/11/19 10:04:48;;;;;;;15.90;8.93;;;;;;;11.37;54.63;100669.28;5004106;28;20034;-69
2021/11/19 10:07:36;;;;;;;17.70;9.23;;;;;;;11.38;55.18;100668.31;5004175;28;20026;-69
2021/11/19 10:10:23;;;;;;;17.40;10.10;;;;;;;11.49;54.89;100657.53;4999536;28;20078;-69
2021/11/19 10:13:12;;;;;;;23.92;9.35;;;;;;;11.63;55.05;100645.63;5004325;28;20247;-71
2021/11/19 10:15:37;;;;;;;27.15;10.07;;;;;;;11.66;54.54;100641.84;4998200;28;20054;-69
2021/11/19 10:18:11;;;;;;;13.98;7.93;;;;;;;11.59;53.81;100623.03;5004019;28;20127;-70
2021/11/19 10:20:39;;;;;;;35.80;9.55;;;;;;;11.63;53.58;100629.72;5003956;28;20060;-70
2021/11/19 10:23:09;;;;;;;18.73;8.60;;;;;;;11.67;53.03;100630.25;5003618;28;20312;-69
2021/11/19 10:25:37;;;;;;;24.88;8.23;;;;;;;11.44;52.62;100627.97;5004144;28;20190;-70
2021/11/19 10:28:13;;;;;;;17.75;7.45;;;;;;;11.42;52.79;100626.41;5003799;28;20244;-69
2021/11/19 10:30:40;;;;;;;18.45;7.50;;;;;;;11.61;52.87;100618.41;5002230;28;20462;-69
2021/11/19 10:33:17;;;;;;;14.38;7.28;;;;;;;11.92;52.19;100612.81;5003630;28;20031;-69
2021/11/19 10:36:07;;;;;;;20.00;7.80;;;;;;;12.09;51.27;100601.38;5003725;28;20042;-69
2021/11/19 10:39:12;;;;;;;20.55;7.38;;;;;;;12.30;50.15;100585.97;5003203;28;20026;-70
2021/11/19 10:42:03;;;;;;;13.75;8.00;;;;;;;12.59;50.93;100592.88;5002401;28;20248;-68
2021/11/19 10:44:43;;;;;;;21.27;7.45;;;;;;;12.75;48.76;100564.59;5003325;28;20053;-68
2021/11/19 10:47:23;;;;;;;19.73;6.78;;;;;;;12.71;48.73;100571.22;4989135;28;20034;-69
2021/11/19 10:49:49;;;;;;;17.58;6.47;;;;;;;12.69;48.77;100585.66;4992009;28;20037;-69
2021/11/19 10:52:29;;;;;;;12.25;7.28;;;;;;;12.55;49.11;100579.06;5000768;28;20027;-67
2021/11/19 10:55:26;;;;;;;20.50;6.85;;;;;;;12.44;46.85;100579.28;5016718;28;20080;-70
2021/11/19 10:58:36;;;;;;;13.48;6.30;;;;;;;12.59;48.13;100580.44;5002093;28;20386;-69
2021/11/19 11:01:02;;;;;;;12.75;8.02;;;;;;;12.65;48.21;100568.34;4982381;28;20105;-67
2021/11/19 11:03:34;;;;;;;14.68;7.10;;;;;;;12.62;48.58;100563.34;5002424;28;20033;-70
2021/11/19 11:06:06;;;;;;;16.50;8.80;;;;;;;12.50;49.38;100569.91;5001285;28;20084;-69
2021/11/19 11:08:35;;;;;;;18.98;8.57;;;;;;;12.41;49.31;100576.94;5000202;28;20089;-69
2021/11/19 11:11:09;;;;;;;24.30;9.20;;;;;;;12.42;49.36;100560.84;5001398;28;20061;-70
2021/11/19 11:13:43;;;;;;;20.65;10.50;;;;;;;12.46;49.09;100567.53;5002313;28;20093;-69
2021/11/19 11:16:18;;;;;;;11.88;6.70;;;;;;;12.49;48.68;100560.25;5002316;28;20038;-70
2021/11/19 11:18:44;;;;;;;17.60;7.75;;;;;;;12.57;48.33;100553.19;5002100;28;20026;-69
2021/11/19 11:21:26;;;;;;;14.30;7.43;;;;;;;12.58;48.54;100548.72;5000796;28;20057;-69
2021/11/19 11:24:06;;;;;;;17.60;8.00;;;;;;;12.53;50.16;100546.53;5002127;28;20035;-70
2021/11/19 11:26:40;;;;;;;13.30;7.43;;;;;;;12.79;49.22;100544.69;5001237;28;20034;-68
2021/11/19 11:29:08;;;;;;;;;;;;;;;12.60;49.49;100544.91;5000438;28;20241;-69
2021/11/19 11:31:50;;;;;;;14.07;6.70;;;;;;;12.53;48.57;100538.56;5002407;28;19956;-69
2021/11/19 11:34:34;;;;;;;15.35;7.60;;;;;;;12.53;49.13;100532.41;5002150;28;20073;-69